KAL1211 ZSSS-RKSI
Flight info
| Callsign | KAL1211 |
|---|---|
| Flight time | 1h 49m |
| Altitude | 39000 |
| Route | LAM61D LAMEN/N0482F390 A593 SADLI Y590 ELGEP Y722 OLMEN OLMEN3C |
| Aircraft | B77W/H-SDE1E2E3FGHIJ2J3J4J5M1RWXY/LB1D1 |
Departure
| Time | 2026-05-06 15:02 |
|---|---|
| Airport | Shanghai Hongqiao International Airport (ZSSS) |
Arrival
| Time | 2026-05-06 16:51 |
|---|---|
| Airport | Incheon International Airport (RKSI) |
| Time | Latitude | Longitude | Altitude | Speed | Heading |
|---|---|---|---|---|---|
| 2026-05-06 14:24 | 31.19496 | 121.32783 | 24 ft | 0 kts | 192° |
| 2026-05-06 14:25 | 31.19494 | 121.32782 | 27 ft | 0 kts | 192° |
| 2026-05-06 14:50 | 31.19510 | 121.32786 | 28 ft | 3 kts | 192° |
| 2026-05-06 14:50 | 31.19526 | 121.32791 | 29 ft | 3 kts | 189° |
| 2026-05-06 14:50 | 31.19546 | 121.32793 | 26 ft | 3 kts | 175° |
| 2026-05-06 14:50 | 31.19565 | 121.32789 | 28 ft | 3 kts | 146° |
| 2026-05-06 14:51 | 31.19576 | 121.32775 | 28 ft | 3 kts | 93° |
| 2026-05-06 14:51 | 31.19576 | 121.32753 | 28 ft | 3 kts | 87° |
| 2026-05-06 14:51 | 31.19575 | 121.32729 | 29 ft | 3 kts | 87° |
| 2026-05-06 14:51 | 31.19575 | 121.32724 | 29 ft | 2 kts | 87° |
| 2026-05-06 14:54 | 31.19577 | 121.32793 | 24 ft | 20 kts | 87° |
| 2026-05-06 14:54 | 31.19583 | 121.32941 | 28 ft | 17 kts | 88° |
| 2026-05-06 14:55 | 31.19605 | 121.33054 | 28 ft | 14 kts | 38° |
| 2026-05-06 14:55 | 31.19703 | 121.33061 | 25 ft | 15 kts | 356° |
| 2026-05-06 14:55 | 31.19807 | 121.33055 | 25 ft | 15 kts | 358° |
| 2026-05-06 14:55 | 31.19911 | 121.33050 | 26 ft | 15 kts | 358° |
| 2026-05-06 14:56 | 31.20016 | 121.33045 | 30 ft | 15 kts | 357° |
| 2026-05-06 14:56 | 31.20120 | 121.33039 | 26 ft | 15 kts | 357° |
| 2026-05-06 14:56 | 31.20225 | 121.33034 | 26 ft | 15 kts | 357° |
| 2026-05-06 14:56 | 31.20329 | 121.33027 | 26 ft | 15 kts | 357° |
| 2026-05-06 14:57 | 31.20440 | 121.33021 | 26 ft | 17 kts | 357° |
| 2026-05-06 14:57 | 31.20571 | 121.33013 | 26 ft | 21 kts | 357° |
| 2026-05-06 14:57 | 31.20724 | 121.33005 | 25 ft | 23 kts | 357° |
| 2026-05-06 14:57 | 31.20894 | 121.32996 | 28 ft | 26 kts | 358° |
| 2026-05-06 14:58 | 31.21080 | 121.32987 | 26 ft | 27 kts | 357° |
| 2026-05-06 14:58 | 31.21214 | 121.32980 | 25 ft | 15 kts | 357° |
| 2026-05-06 14:58 | 31.21283 | 121.33017 | 27 ft | 11 kts | 75° |
| 2026-05-06 14:58 | 31.21292 | 121.33121 | 25 ft | 14 kts | 92° |
| 2026-05-06 14:59 | 31.21210 | 121.33176 | 24 ft | 15 kts | 174° |
| 2026-05-06 14:59 | 31.21105 | 121.33176 | 26 ft | 15 kts | 177° |
| 2026-05-06 14:59 | 31.21061 | 121.33180 | 23 ft | 0 kts | 176° |
| 2026-05-06 15:01 | 31.21055 | 121.33181 | 22 ft | 9 kts | 176° |
| 2026-05-06 15:02 | 31.20647 | 121.33203 | 27 ft | 114 kts | 177° |
| 2026-05-06 15:02 | 31.19527 | 121.33260 | 222 ft | 197 kts | 177° |
| 2026-05-06 15:02 | 31.18051 | 121.33364 | 1185 ft | 220 kts | 175° |
| 2026-05-06 15:02 | 31.16497 | 121.33505 | 2704 ft | 231 kts | 176° |
| 2026-05-06 15:03 | 31.14834 | 121.33662 | 4004 ft | 245 kts | 178° |
| 2026-05-06 15:03 | 31.13166 | 121.33737 | 5715 ft | 242 kts | 181° |
| 2026-05-06 15:03 | 31.11437 | 121.33775 | 7076 ft | 253 kts | 181° |
| 2026-05-06 15:03 | 31.09708 | 121.33832 | 8410 ft | 247 kts | 181° |
| 2026-05-06 15:04 | 31.07961 | 121.33904 | 9322 ft | 258 kts | 180° |
| 2026-05-06 15:04 | 31.06106 | 121.33988 | 10002 ft | 276 kts | 180° |
| 2026-05-06 15:04 | 31.04181 | 121.34080 | 10785 ft | 285 kts | 180° |
| 2026-05-06 15:04 | 31.02172 | 121.34234 | 11650 ft | 294 kts | 175° |
| 2026-05-06 15:05 | 31.00126 | 121.34612 | 12554 ft | 300 kts | 173° |
| 2026-05-06 15:05 | 30.98052 | 121.35035 | 13467 ft | 305 kts | 173° |
| 2026-05-06 15:05 | 30.95935 | 121.35451 | 14215 ft | 315 kts | 173° |
| 2026-05-06 15:05 | 30.93810 | 121.36212 | 14033 ft | 325 kts | 152° |
| 2026-05-06 15:06 | 30.92137 | 121.37967 | 13998 ft | 334 kts | 127° |
| 2026-05-06 15:06 | 30.91102 | 121.40563 | 13976 ft | 374 kts | 108° |
| 2026-05-06 15:06 | 30.90634 | 121.42559 | 13971 ft | 398 kts | 106° |
| 2026-05-06 15:06 | 30.89732 | 121.46818 | 13946 ft | 413 kts | 105° |
| 2026-05-06 15:07 | 30.89062 | 121.50081 | 13941 ft | 415 kts | 105° |
| 2026-05-06 15:07 | 30.88383 | 121.53346 | 13944 ft | 414 kts | 105° |
| 2026-05-06 15:07 | 30.87694 | 121.56592 | 13930 ft | 413 kts | 105° |
| 2026-05-06 15:07 | 30.86993 | 121.59832 | 13931 ft | 412 kts | 105° |
| 2026-05-06 15:08 | 30.86284 | 121.63069 | 13927 ft | 412 kts | 105° |
| 2026-05-06 15:08 | 30.85571 | 121.66298 | 13942 ft | 411 kts | 105° |
| 2026-05-06 15:08 | 30.85090 | 121.68475 | 13937 ft | 411 kts | 105° |
| 2026-05-06 15:08 | 30.84164 | 121.72652 | 13943 ft | 411 kts | 105° |
| 2026-05-06 15:09 | 30.83691 | 121.74784 | 13945 ft | 411 kts | 106° |
| 2026-05-06 15:09 | 30.82975 | 121.78009 | 13939 ft | 411 kts | 106° |
| 2026-05-06 15:09 | 30.82260 | 121.81228 | 13931 ft | 412 kts | 105° |
| 2026-05-06 15:09 | 30.81542 | 121.84458 | 13948 ft | 412 kts | 105° |
| 2026-05-06 15:10 | 30.80824 | 121.87680 | 13964 ft | 412 kts | 105° |
| 2026-05-06 15:10 | 30.80176 | 121.90918 | 13944 ft | 408 kts | 98° |
| 2026-05-06 15:10 | 30.80265 | 121.94217 | 13964 ft | 414 kts | 78° |
| 2026-05-06 15:10 | 30.81149 | 121.97408 | 13987 ft | 417 kts | 70° |
| 2026-05-06 15:11 | 30.82107 | 122.00604 | 13979 ft | 418 kts | 71° |
| 2026-05-06 15:11 | 30.83031 | 122.03819 | 13977 ft | 419 kts | 72° |
| 2026-05-06 15:11 | 30.83934 | 122.07036 | 13970 ft | 418 kts | 72° |
| 2026-05-06 15:11 | 30.84827 | 122.10248 | 13976 ft | 417 kts | 72° |
| 2026-05-06 15:12 | 30.85718 | 122.13459 | 13960 ft | 415 kts | 72° |
| 2026-05-06 15:12 | 30.86625 | 122.16643 | 13974 ft | 413 kts | 69° |
| 2026-05-06 15:12 | 30.87903 | 122.19616 | 13992 ft | 410 kts | 58° |
| 2026-05-06 15:12 | 30.89445 | 122.22425 | 13994 ft | 414 kts | 56° |
| 2026-05-06 15:13 | 30.91013 | 122.25258 | 13989 ft | 418 kts | 57° |
| 2026-05-06 15:13 | 30.92557 | 122.28115 | 13986 ft | 416 kts | 58° |
| 2026-05-06 15:13 | 30.94072 | 122.30989 | 13975 ft | 415 kts | 58° |
| 2026-05-06 15:13 | 30.95566 | 122.33864 | 13989 ft | 414 kts | 58° |
| 2026-05-06 15:14 | 30.97031 | 122.36698 | 13988 ft | 414 kts | 58° |
| 2026-05-06 15:14 | 30.98515 | 122.39567 | 13985 ft | 413 kts | 58° |
| 2026-05-06 15:14 | 30.99766 | 122.42547 | 13991 ft | 411 kts | 73° |
| 2026-05-06 15:14 | 31.00133 | 122.45848 | 13991 ft | 411 kts | 92° |
| 2026-05-06 15:15 | 31.00036 | 122.49203 | 13995 ft | 417 kts | 92° |
| 2026-05-06 15:15 | 30.99998 | 122.52587 | 13987 ft | 418 kts | 91° |
| 2026-05-06 15:15 | 30.99995 | 122.55983 | 13986 ft | 419 kts | 90° |
| 2026-05-06 15:15 | 31.00001 | 122.59376 | 13994 ft | 418 kts | 90° |
| 2026-05-06 15:16 | 31.00002 | 122.62765 | 13998 ft | 417 kts | 91° |
| 2026-05-06 15:16 | 31.00001 | 122.66139 | 13983 ft | 416 kts | 91° |
| 2026-05-06 15:16 | 31.00003 | 122.69504 | 13983 ft | 415 kts | 91° |
| 2026-05-06 15:16 | 31.00006 | 122.72862 | 13995 ft | 414 kts | 91° |
| 2026-05-06 15:17 | 31.00009 | 122.76212 | 13996 ft | 413 kts | 91° |
| 2026-05-06 15:17 | 31.00011 | 122.79564 | 13993 ft | 413 kts | 91° |
| 2026-05-06 15:17 | 31.00011 | 122.82908 | 13993 ft | 413 kts | 91° |
| 2026-05-06 15:17 | 31.00011 | 122.86251 | 14001 ft | 413 kts | 91° |
| 2026-05-06 15:18 | 31.00010 | 122.89599 | 14001 ft | 413 kts | 91° |
| 2026-05-06 15:18 | 31.00008 | 122.92949 | 14002 ft | 413 kts | 91° |
| 2026-05-06 15:18 | 31.00005 | 122.96296 | 13993 ft | 413 kts | 91° |
| 2026-05-06 15:18 | 31.00285 | 122.99587 | 13999 ft | 411 kts | 75° |
| 2026-05-06 15:19 | 31.01462 | 123.02633 | 13999 ft | 415 kts | 55° |
| 2026-05-06 15:19 | 31.03175 | 123.05333 | 14015 ft | 416 kts | 52° |
| 2026-05-06 15:19 | 31.04878 | 123.08018 | 14010 ft | 418 kts | 53° |
| 2026-05-06 15:19 | 31.06592 | 123.10763 | 14007 ft | 419 kts | 53° |
| 2026-05-06 15:20 | 31.08296 | 123.13518 | 13994 ft | 419 kts | 54° |
| 2026-05-06 15:20 | 31.09994 | 123.16278 | 13997 ft | 418 kts | 54° |
| 2026-05-06 15:20 | 31.11686 | 123.19038 | 13997 ft | 417 kts | 54° |
| 2026-05-06 15:20 | 31.13372 | 123.21793 | 13997 ft | 416 kts | 54° |
| 2026-05-06 15:21 | 31.15055 | 123.24546 | 13999 ft | 415 kts | 54° |
| 2026-05-06 15:21 | 31.16728 | 123.27284 | 14002 ft | 414 kts | 54° |
| 2026-05-06 15:21 | 31.18401 | 123.30025 | 14002 ft | 414 kts | 54° |
| 2026-05-06 15:21 | 31.20071 | 123.32762 | 14001 ft | 414 kts | 54° |
| 2026-05-06 15:22 | 31.21741 | 123.35500 | 14012 ft | 414 kts | 54° |
| 2026-05-06 15:22 | 31.23408 | 123.38237 | 14000 ft | 414 kts | 54° |
| 2026-05-06 15:22 | 31.25077 | 123.40978 | 14005 ft | 414 kts | 54° |
| 2026-05-06 15:22 | 31.26745 | 123.43720 | 14004 ft | 414 kts | 54° |
| 2026-05-06 15:23 | 31.28392 | 123.46431 | 14006 ft | 414 kts | 54° |
| 2026-05-06 15:23 | 31.30060 | 123.49175 | 14022 ft | 414 kts | 54° |
| 2026-05-06 15:23 | 31.31729 | 123.51924 | 14005 ft | 415 kts | 54° |
| 2026-05-06 15:23 | 31.33401 | 123.54678 | 14007 ft | 415 kts | 54° |
| 2026-05-06 15:24 | 31.35074 | 123.57422 | 14006 ft | 415 kts | 54° |
| 2026-05-06 15:24 | 31.36753 | 123.60163 | 14004 ft | 415 kts | 54° |
| 2026-05-06 15:24 | 31.38436 | 123.62911 | 14008 ft | 415 kts | 54° |
| 2026-05-06 15:24 | 31.40120 | 123.65662 | 14010 ft | 415 kts | 54° |
| 2026-05-06 15:25 | 31.41802 | 123.68414 | 14010 ft | 415 kts | 54° |
| 2026-05-06 15:25 | 31.43480 | 123.71162 | 14005 ft | 416 kts | 54° |
| 2026-05-06 15:25 | 31.45162 | 123.73920 | 14008 ft | 416 kts | 54° |
| 2026-05-06 15:25 | 31.46841 | 123.76677 | 14009 ft | 416 kts | 54° |
| 2026-05-06 15:26 | 31.48522 | 123.79437 | 14009 ft | 416 kts | 54° |
| 2026-05-06 15:26 | 31.50198 | 123.82193 | 14011 ft | 416 kts | 54° |
| 2026-05-06 15:26 | 31.51876 | 123.84953 | 14012 ft | 416 kts | 54° |
| 2026-05-06 15:26 | 31.53553 | 123.87715 | 14010 ft | 416 kts | 54° |
| 2026-05-06 15:27 | 31.55230 | 123.90477 | 14010 ft | 416 kts | 54° |
| 2026-05-06 15:27 | 31.56905 | 123.93238 | 14011 ft | 416 kts | 54° |
| 2026-05-06 15:27 | 31.58580 | 123.96000 | 14008 ft | 416 kts | 54° |
| 2026-05-06 15:27 | 31.60247 | 123.98759 | 14007 ft | 412 kts | 55° |
| 2026-05-06 15:28 | 31.61562 | 124.01714 | 13996 ft | 409 kts | 73° |
| 2026-05-06 15:28 | 31.62273 | 124.04977 | 14033 ft | 417 kts | 77° |
| 2026-05-06 15:28 | 31.62953 | 124.08298 | 14011 ft | 418 kts | 77° |
| 2026-05-06 15:28 | 31.63649 | 124.11604 | 14009 ft | 416 kts | 76° |
| 2026-05-06 15:29 | 31.64355 | 124.14891 | 14009 ft | 414 kts | 76° |
| 2026-05-06 15:29 | 31.65070 | 124.18162 | 14009 ft | 413 kts | 76° |
| 2026-05-06 15:29 | 31.65789 | 124.21421 | 14013 ft | 412 kts | 76° |
| 2026-05-06 15:29 | 31.66501 | 124.24632 | 14013 ft | 412 kts | 76° |
| 2026-05-06 15:30 | 31.67223 | 124.27885 | 14013 ft | 412 kts | 76° |
| 2026-05-06 15:30 | 31.67948 | 124.31152 | 14014 ft | 413 kts | 76° |
| 2026-05-06 15:30 | 31.68672 | 124.34416 | 14018 ft | 414 kts | 76° |
| 2026-05-06 15:30 | 31.69398 | 124.37694 | 14018 ft | 415 kts | 76° |
| 2026-05-06 15:31 | 31.70122 | 124.40970 | 14019 ft | 415 kts | 76° |
| 2026-05-06 15:31 | 31.70846 | 124.44255 | 14016 ft | 416 kts | 76° |
| 2026-05-06 15:31 | 31.71572 | 124.47547 | 14015 ft | 416 kts | 76° |
| 2026-05-06 15:32 | 31.73020 | 124.54133 | 14013 ft | 416 kts | 76° |
| 2026-05-06 15:32 | 31.73743 | 124.57425 | 14013 ft | 416 kts | 76° |
| 2026-05-06 15:32 | 31.74465 | 124.60718 | 14013 ft | 416 kts | 76° |
| 2026-05-06 15:32 | 31.75185 | 124.64006 | 14013 ft | 416 kts | 76° |
| 2026-05-06 15:33 | 31.75902 | 124.67289 | 14016 ft | 415 kts | 76° |
| 2026-05-06 15:33 | 31.76620 | 124.70578 | 14016 ft | 415 kts | 76° |
| 2026-05-06 15:33 | 31.77336 | 124.73862 | 14018 ft | 415 kts | 76° |
| 2026-05-06 15:33 | 31.78051 | 124.77147 | 14017 ft | 415 kts | 76° |
| 2026-05-06 15:34 | 31.78765 | 124.80432 | 14011 ft | 414 kts | 76° |
| 2026-05-06 15:34 | 31.79477 | 124.83709 | 14013 ft | 414 kts | 76° |
| 2026-05-06 15:34 | 31.80189 | 124.86990 | 14013 ft | 414 kts | 76° |
| 2026-05-06 15:34 | 31.80899 | 124.90269 | 14014 ft | 414 kts | 76° |
| 2026-05-06 15:35 | 31.81609 | 124.93551 | 14020 ft | 414 kts | 76° |
| 2026-05-06 15:35 | 31.82277 | 124.96846 | 14015 ft | 414 kts | 80° |
| 2026-05-06 15:35 | 31.82563 | 125.00209 | 14011 ft | 413 kts | 89° |
| 2026-05-06 15:35 | 31.82448 | 125.03582 | 14030 ft | 412 kts | 97° |
| 2026-05-06 15:36 | 31.81969 | 125.06892 | 14029 ft | 411 kts | 102° |
| 2026-05-06 15:36 | 31.81410 | 125.10186 | 14016 ft | 411 kts | 102° |
| 2026-05-06 15:36 | 31.80849 | 125.13478 | 14015 ft | 411 kts | 102° |
| 2026-05-06 15:36 | 31.80292 | 125.16777 | 14017 ft | 411 kts | 102° |
| 2026-05-06 15:37 | 31.79748 | 125.20036 | 14018 ft | 411 kts | 102° |
| 2026-05-06 15:37 | 31.79203 | 125.23336 | 14017 ft | 412 kts | 102° |
| 2026-05-06 15:37 | 31.78659 | 125.26639 | 14012 ft | 411 kts | 101° |
| 2026-05-06 15:37 | 31.78118 | 125.29936 | 14030 ft | 411 kts | 101° |
| 2026-05-06 15:38 | 31.77577 | 125.33238 | 14013 ft | 411 kts | 101° |
| 2026-05-06 15:38 | 31.77034 | 125.36540 | 14013 ft | 411 kts | 101° |
| 2026-05-06 15:38 | 31.76491 | 125.39837 | 14014 ft | 411 kts | 101° |
| 2026-05-06 15:38 | 31.75947 | 125.43138 | 14014 ft | 411 kts | 102° |
| 2026-05-06 15:39 | 31.75402 | 125.46432 | 14013 ft | 411 kts | 102° |
| 2026-05-06 15:39 | 31.74857 | 125.49727 | 14022 ft | 411 kts | 102° |
| 2026-05-06 15:39 | 31.74311 | 125.53020 | 14014 ft | 411 kts | 101° |
| 2026-05-06 15:39 | 31.73764 | 125.56318 | 14011 ft | 411 kts | 101° |
| 2026-05-06 15:40 | 31.73217 | 125.59606 | 14014 ft | 411 kts | 102° |
| 2026-05-06 15:40 | 31.72698 | 125.62900 | 14011 ft | 410 kts | 98° |
| 2026-05-06 15:40 | 31.72544 | 125.66245 | 14010 ft | 410 kts | 88° |
| 2026-05-06 15:40 | 31.72797 | 125.69536 | 14032 ft | 411 kts | 81° |
| 2026-05-06 15:41 | 31.73444 | 125.72849 | 14017 ft | 410 kts | 75° |
| 2026-05-06 15:41 | 31.74181 | 125.76042 | 14013 ft | 411 kts | 75° |
| 2026-05-06 15:41 | 31.74923 | 125.79282 | 14012 ft | 411 kts | 75° |
| 2026-05-06 15:41 | 31.75625 | 125.82421 | 14026 ft | 411 kts | 75° |
| 2026-05-06 15:42 | 31.76330 | 125.85640 | 14012 ft | 411 kts | 75° |
| 2026-05-06 15:42 | 31.77044 | 125.88888 | 14007 ft | 407 kts | 73° |
| 2026-05-06 15:42 | 31.78209 | 125.91895 | 14008 ft | 408 kts | 53° |
| 2026-05-06 15:42 | 31.80192 | 125.94277 | 14026 ft | 410 kts | 36° |
| 2026-05-06 15:43 | 31.82665 | 125.95892 | 14014 ft | 403 kts | 20° |
| 2026-05-06 15:43 | 31.85311 | 125.96993 | 14022 ft | 404 kts | 17° |
| 2026-05-06 15:43 | 31.87982 | 125.98063 | 14021 ft | 407 kts | 17° |
| 2026-05-06 15:43 | 31.90664 | 125.99147 | 14021 ft | 408 kts | 18° |
| 2026-05-06 15:44 | 31.93349 | 126.00250 | 14017 ft | 409 kts | 18° |
| 2026-05-06 15:44 | 31.96031 | 126.01370 | 14013 ft | 409 kts | 18° |
| 2026-05-06 15:44 | 31.98713 | 126.02500 | 14011 ft | 408 kts | 18° |
| 2026-05-06 15:44 | 32.01384 | 126.03630 | 14011 ft | 408 kts | 18° |
| 2026-05-06 15:45 | 32.04051 | 126.04761 | 14012 ft | 407 kts | 18° |
| 2026-05-06 15:45 | 32.06712 | 126.05888 | 14012 ft | 406 kts | 18° |
| 2026-05-06 15:45 | 32.09376 | 126.07016 | 14013 ft | 406 kts | 18° |
| 2026-05-06 15:45 | 32.12031 | 126.08139 | 14016 ft | 406 kts | 18° |
| 2026-05-06 15:46 | 32.14661 | 126.09252 | 14019 ft | 406 kts | 18° |
| 2026-05-06 15:46 | 32.17319 | 126.10378 | 14017 ft | 406 kts | 18° |
| 2026-05-06 15:46 | 32.19977 | 126.11505 | 14016 ft | 406 kts | 18° |
| 2026-05-06 15:46 | 32.22634 | 126.12633 | 14021 ft | 406 kts | 18° |
| 2026-05-06 15:47 | 32.25296 | 126.13763 | 14019 ft | 406 kts | 18° |
| 2026-05-06 15:47 | 32.27952 | 126.14892 | 14016 ft | 407 kts | 18° |
| 2026-05-06 15:47 | 32.30616 | 126.16024 | 14014 ft | 407 kts | 18° |
| 2026-05-06 15:47 | 32.33286 | 126.17160 | 14014 ft | 407 kts | 18° |
| 2026-05-06 15:48 | 32.35955 | 126.18296 | 14014 ft | 407 kts | 18° |
| 2026-05-06 15:48 | 32.38628 | 126.19435 | 14016 ft | 407 kts | 18° |
| 2026-05-06 15:48 | 32.41270 | 126.20562 | 14023 ft | 407 kts | 18° |
| 2026-05-06 15:48 | 32.43916 | 126.21691 | 14020 ft | 408 kts | 18° |
| 2026-05-06 15:49 | 32.46584 | 126.22830 | 14020 ft | 408 kts | 18° |
| 2026-05-06 15:49 | 32.49257 | 126.23971 | 14017 ft | 408 kts | 18° |
| 2026-05-06 15:49 | 32.51926 | 126.25111 | 14014 ft | 408 kts | 18° |
| 2026-05-06 15:49 | 32.54592 | 126.26251 | 14015 ft | 408 kts | 18° |
| 2026-05-06 15:50 | 32.57224 | 126.27381 | 14016 ft | 407 kts | 18° |
| 2026-05-06 15:50 | 32.59886 | 126.28525 | 14024 ft | 407 kts | 18° |
| 2026-05-06 15:50 | 32.62547 | 126.29671 | 14022 ft | 407 kts | 18° |
| 2026-05-06 15:50 | 32.65213 | 126.30819 | 14020 ft | 407 kts | 18° |
| 2026-05-06 15:51 | 32.67873 | 126.31966 | 14019 ft | 407 kts | 18° |
| 2026-05-06 15:51 | 32.70538 | 126.33115 | 14017 ft | 407 kts | 18° |
| 2026-05-06 15:51 | 32.73199 | 126.34263 | 14016 ft | 407 kts | 18° |
| 2026-05-06 15:51 | 32.75865 | 126.35414 | 14016 ft | 407 kts | 18° |
| 2026-05-06 15:52 | 32.78538 | 126.36569 | 14018 ft | 407 kts | 18° |
| 2026-05-06 15:52 | 32.81198 | 126.37719 | 14023 ft | 408 kts | 18° |
| 2026-05-06 15:52 | 32.83865 | 126.38873 | 14020 ft | 408 kts | 18° |
| 2026-05-06 15:52 | 32.86536 | 126.40029 | 14019 ft | 408 kts | 18° |
| 2026-05-06 15:53 | 32.89174 | 126.41171 | 14024 ft | 408 kts | 18° |
| 2026-05-06 15:53 | 32.91847 | 126.42330 | 14021 ft | 408 kts | 18° |
| 2026-05-06 15:53 | 32.94517 | 126.43488 | 14021 ft | 408 kts | 18° |
| 2026-05-06 15:53 | 32.97188 | 126.44647 | 14022 ft | 408 kts | 18° |
| 2026-05-06 15:54 | 32.99856 | 126.45805 | 14014 ft | 408 kts | 18° |
| 2026-05-06 15:54 | 33.02526 | 126.46958 | 14019 ft | 408 kts | 18° |
| 2026-05-06 15:54 | 33.04293 | 126.47715 | 14020 ft | 408 kts | 18° |
| 2026-05-06 15:54 | 33.06968 | 126.48857 | 14021 ft | 408 kts | 18° |
| 2026-05-06 15:55 | 33.09642 | 126.49998 | 14022 ft | 408 kts | 18° |
| 2026-05-06 15:55 | 33.12314 | 126.51140 | 14019 ft | 408 kts | 18° |
| 2026-05-06 15:55 | 33.14981 | 126.52282 | 14020 ft | 408 kts | 18° |
| 2026-05-06 15:55 | 33.17652 | 126.53428 | 14188 ft | 407 kts | 18° |
| 2026-05-06 15:56 | 33.20337 | 126.54580 | 14814 ft | 415 kts | 18° |
| 2026-05-06 15:56 | 33.23083 | 126.55758 | 15542 ft | 426 kts | 18° |
| 2026-05-06 15:56 | 33.25909 | 126.56972 | 16287 ft | 435 kts | 18° |
| 2026-05-06 15:56 | 33.28780 | 126.58208 | 17038 ft | 440 kts | 18° |
| 2026-05-06 15:57 | 33.31670 | 126.59453 | 17803 ft | 444 kts | 18° |
| 2026-05-06 15:57 | 33.34589 | 126.60712 | 18553 ft | 448 kts | 18° |
| 2026-05-06 15:57 | 33.37529 | 126.61979 | 19233 ft | 452 kts | 18° |
| 2026-05-06 15:57 | 33.40501 | 126.63266 | 20013 ft | 456 kts | 17° |
| 2026-05-06 15:58 | 33.43486 | 126.64571 | 20968 ft | 459 kts | 17° |
| 2026-05-06 15:58 | 33.46509 | 126.65898 | 21971 ft | 466 kts | 17° |
| 2026-05-06 15:58 | 33.49569 | 126.67240 | 22996 ft | 471 kts | 17° |
| 2026-05-06 15:58 | 33.52664 | 126.68576 | 23987 ft | 474 kts | 14° |
| 2026-05-06 15:59 | 33.55833 | 126.69629 | 24884 ft | 473 kts | 8° |
| 2026-05-06 15:59 | 33.59068 | 126.70306 | 25772 ft | 471 kts | 2° |
| 2026-05-06 15:59 | 33.62347 | 126.70659 | 26510 ft | 474 kts | 0° |
| 2026-05-06 15:59 | 33.65646 | 126.70966 | 27237 ft | 478 kts | 0° |
| 2026-05-06 16:00 | 33.68976 | 126.71279 | 27990 ft | 481 kts | 0° |
| 2026-05-06 16:00 | 33.72317 | 126.71610 | 28754 ft | 483 kts | 0° |
| 2026-05-06 16:00 | 33.75667 | 126.71960 | 29557 ft | 484 kts | 0° |
| 2026-05-06 16:00 | 33.79029 | 126.72321 | 30328 ft | 484 kts | 0° |
| 2026-05-06 16:01 | 33.82361 | 126.72682 | 31017 ft | 483 kts | 0° |
| 2026-05-06 16:01 | 33.85699 | 126.73043 | 31725 ft | 481 kts | 0° |
| 2026-05-06 16:01 | 33.89025 | 126.73400 | 32457 ft | 479 kts | 0° |
| 2026-05-06 16:01 | 33.92292 | 126.73745 | 33187 ft | 476 kts | 360° |
| 2026-05-06 16:02 | 33.95579 | 126.74088 | 33963 ft | 472 kts | 359° |
| 2026-05-06 16:02 | 33.98877 | 126.74430 | 34660 ft | 468 kts | 359° |
| 2026-05-06 16:02 | 34.02061 | 126.74762 | 35338 ft | 463 kts | 359° |
| 2026-05-06 16:02 | 34.05253 | 126.75095 | 36047 ft | 457 kts | 360° |
| 2026-05-06 16:03 | 34.08402 | 126.75424 | 36781 ft | 451 kts | 360° |
| 2026-05-06 16:03 | 34.11503 | 126.75749 | 37531 ft | 444 kts | 360° |
| 2026-05-06 16:03 | 34.14559 | 126.76069 | 38304 ft | 437 kts | 360° |
| 2026-05-06 16:03 | 34.17565 | 126.76382 | 38944 ft | 433 kts | 359° |
| 2026-05-06 16:04 | 34.20582 | 126.76694 | 39076 ft | 439 kts | 359° |
| 2026-05-06 16:04 | 34.23663 | 126.77012 | 39078 ft | 448 kts | 360° |
| 2026-05-06 16:04 | 34.29992 | 126.77674 | 39083 ft | 465 kts | 360° |
| 2026-05-06 16:05 | 34.36527 | 126.78362 | 39093 ft | 477 kts | 360° |
| 2026-05-06 16:05 | 34.43200 | 126.79070 | 39071 ft | 486 kts | 0° |
| 2026-05-06 16:06 | 34.49994 | 126.79792 | 39080 ft | 493 kts | 0° |
| 2026-05-06 16:06 | 34.56861 | 126.80522 | 39089 ft | 498 kts | 360° |
| 2026-05-06 16:07 | 34.63753 | 126.81257 | 39070 ft | 501 kts | 360° |
| 2026-05-06 16:07 | 34.70715 | 126.82000 | 39064 ft | 503 kts | 360° |
| 2026-05-06 16:08 | 34.77691 | 126.82745 | 39076 ft | 503 kts | 360° |
| 2026-05-06 16:08 | 34.84652 | 126.83491 | 39064 ft | 502 kts | 360° |
| 2026-05-06 16:09 | 34.91601 | 126.84235 | 39058 ft | 500 kts | 360° |
| 2026-05-06 16:09 | 34.98524 | 126.84976 | 39063 ft | 499 kts | 360° |
| 2026-05-06 16:10 | 35.05431 | 126.85718 | 39061 ft | 497 kts | 360° |
| 2026-05-06 16:10 | 35.12277 | 126.86453 | 39064 ft | 497 kts | 360° |
| 2026-05-06 16:11 | 35.19169 | 126.87200 | 39069 ft | 497 kts | 359° |
| 2026-05-06 16:11 | 35.26069 | 126.87951 | 39061 ft | 498 kts | 359° |
| 2026-05-06 16:12 | 35.32985 | 126.88706 | 39055 ft | 499 kts | 359° |
| 2026-05-06 16:12 | 35.39911 | 126.89463 | 39059 ft | 500 kts | 359° |
| 2026-05-06 16:13 | 35.46841 | 126.90220 | 39053 ft | 501 kts | 359° |
| 2026-05-06 16:13 | 35.53784 | 126.90980 | 39061 ft | 501 kts | 359° |
| 2026-05-06 16:14 | 35.60747 | 126.91741 | 39057 ft | 503 kts | 358° |
| 2026-05-06 16:14 | 35.67723 | 126.92504 | 39048 ft | 504 kts | 358° |
| 2026-05-06 16:15 | 35.74711 | 126.93272 | 39059 ft | 505 kts | 358° |
| 2026-05-06 16:15 | 35.81716 | 126.94042 | 39050 ft | 506 kts | 358° |
| 2026-05-06 16:16 | 35.88732 | 126.94814 | 39047 ft | 507 kts | 358° |
| 2026-05-06 16:16 | 35.95791 | 126.95597 | 39057 ft | 510 kts | 358° |
| 2026-05-06 16:17 | 36.02863 | 126.96387 | 39047 ft | 512 kts | 358° |
| 2026-05-06 16:17 | 36.09918 | 126.97176 | 39032 ft | 513 kts | 358° |
| 2026-05-06 16:18 | 36.17045 | 126.97975 | 39041 ft | 515 kts | 358° |
| 2026-05-06 16:18 | 36.24187 | 126.98777 | 39030 ft | 516 kts | 358° |
| 2026-05-06 16:19 | 36.31332 | 126.99579 | 39037 ft | 516 kts | 358° |
| 2026-05-06 16:19 | 36.38498 | 127.00350 | 39018 ft | 513 kts | 356° |
| 2026-05-06 16:20 | 36.45561 | 127.00235 | 39011 ft | 506 kts | 350° |
| 2026-05-06 16:20 | 36.52573 | 126.99868 | 39034 ft | 505 kts | 350° |
| 2026-05-06 16:21 | 36.59620 | 126.99601 | 39005 ft | 505 kts | 351° |
| 2026-05-06 16:21 | 36.66630 | 126.99358 | 38995 ft | 504 kts | 351° |
| 2026-05-06 16:22 | 36.70088 | 126.99022 | 39000 ft | 491 kts | 341° |
| 2026-05-06 16:22 | 36.73293 | 126.97777 | 39005 ft | 474 kts | 328° |
| 2026-05-06 16:22 | 36.76137 | 126.95821 | 38995 ft | 462 kts | 318° |
| 2026-05-06 16:22 | 36.78563 | 126.93273 | 38981 ft | 449 kts | 308° |
| 2026-05-06 16:23 | 36.82847 | 126.87686 | 38985 ft | 449 kts | 308° |
| 2026-05-06 16:23 | 36.87218 | 126.82116 | 38994 ft | 449 kts | 308° |
| 2026-05-06 16:24 | 36.91625 | 126.76569 | 38999 ft | 450 kts | 309° |
| 2026-05-06 16:24 | 36.96027 | 126.71011 | 38994 ft | 450 kts | 308° |
| 2026-05-06 16:25 | 37.00272 | 126.65293 | 38980 ft | 442 kts | 299° |
| 2026-05-06 16:25 | 37.02930 | 126.58494 | 39003 ft | 432 kts | 285° |
| 2026-05-06 16:26 | 37.04303 | 126.51277 | 38984 ft | 427 kts | 289° |
| 2026-05-06 16:26 | 37.05899 | 126.48081 | 39035 ft | 443 kts | 307° |
| 2026-05-06 16:26 | 37.08408 | 126.45717 | 39023 ft | 466 kts | 326° |
| 2026-05-06 16:27 | 37.14207 | 126.42131 | 39009 ft | 466 kts | 322° |
| 2026-05-06 16:27 | 37.19619 | 126.37793 | 39011 ft | 465 kts | 317° |
| 2026-05-06 16:28 | 37.24897 | 126.33067 | 39008 ft | 464 kts | 317° |
| 2026-05-06 16:28 | 37.27501 | 126.30711 | 38813 ft | 460 kts | 316° |
| 2026-05-06 16:28 | 37.30087 | 126.28368 | 38040 ft | 455 kts | 315° |
| 2026-05-06 16:29 | 37.32424 | 126.25763 | 37222 ft | 444 kts | 306° |
| 2026-05-06 16:29 | 37.34328 | 126.22772 | 36402 ft | 434 kts | 297° |
| 2026-05-06 16:29 | 37.35757 | 126.19484 | 35606 ft | 427 kts | 288° |
| 2026-05-06 16:29 | 37.36693 | 126.15964 | 34824 ft | 421 kts | 279° |
| 2026-05-06 16:30 | 37.37103 | 126.12351 | 34045 ft | 417 kts | 270° |
| 2026-05-06 16:30 | 37.37084 | 126.09920 | 33486 ft | 416 kts | 264° |
| 2026-05-06 16:30 | 37.36346 | 126.05172 | 32370 ft | 416 kts | 252° |
| 2026-05-06 16:30 | 37.35203 | 126.01829 | 31560 ft | 418 kts | 243° |
| 2026-05-06 16:31 | 37.33624 | 125.98758 | 30786 ft | 421 kts | 237° |
| 2026-05-06 16:31 | 37.31835 | 125.95830 | 30024 ft | 423 kts | 234° |
| 2026-05-06 16:31 | 37.29961 | 125.92924 | 29124 ft | 429 kts | 233° |
| 2026-05-06 16:31 | 37.28059 | 125.90016 | 28273 ft | 431 kts | 233° |
| 2026-05-06 16:32 | 37.26156 | 125.87116 | 27433 ft | 429 kts | 233° |
| 2026-05-06 16:32 | 37.24284 | 125.84273 | 26632 ft | 426 kts | 233° |
| 2026-05-06 16:32 | 37.22425 | 125.81456 | 25844 ft | 423 kts | 233° |
| 2026-05-06 16:32 | 37.20548 | 125.78611 | 25080 ft | 420 kts | 233° |
| 2026-05-06 16:33 | 37.18692 | 125.75797 | 24320 ft | 417 kts | 233° |
| 2026-05-06 16:33 | 37.16851 | 125.73013 | 23602 ft | 413 kts | 233° |
| 2026-05-06 16:33 | 37.15016 | 125.70244 | 22692 ft | 410 kts | 233° |
| 2026-05-06 16:34 | 37.11833 | 125.64474 | 20972 ft | 384 kts | 247° |
| 2026-05-06 16:34 | 37.10984 | 125.61429 | 20089 ft | 363 kts | 257° |
| 2026-05-06 16:34 | 37.10656 | 125.58243 | 19228 ft | 376 kts | 267° |
| 2026-05-06 16:34 | 37.10846 | 125.54946 | 18360 ft | 384 kts | 277° |
| 2026-05-06 16:35 | 37.11563 | 125.51681 | 17394 ft | 392 kts | 288° |
| 2026-05-06 16:35 | 37.12781 | 125.48604 | 16460 ft | 399 kts | 298° |
| 2026-05-06 16:35 | 37.14472 | 125.45807 | 15529 ft | 406 kts | 309° |
| 2026-05-06 16:35 | 37.16571 | 125.43417 | 14633 ft | 411 kts | 320° |
| 2026-05-06 16:36 | 37.18981 | 125.41538 | 13761 ft | 416 kts | 330° |
| 2026-05-06 16:36 | 37.21645 | 125.40237 | 12910 ft | 390 kts | 341° |
| 2026-05-06 16:36 | 37.24230 | 125.39653 | 11978 ft | 369 kts | 353° |
| 2026-05-06 16:36 | 37.26746 | 125.39815 | 11074 ft | 361 kts | 8° |
| 2026-05-06 16:37 | 37.29112 | 125.40812 | 10190 ft | 368 kts | 24° |
| 2026-05-06 16:37 | 37.31244 | 125.42620 | 9290 ft | 379 kts | 40° |
| 2026-05-06 16:37 | 37.33012 | 125.45117 | 8669 ft | 384 kts | 53° |
| 2026-05-06 16:37 | 37.34311 | 125.48054 | 8243 ft | 376 kts | 66° |
| 2026-05-06 16:38 | 37.35266 | 125.51025 | 7857 ft | 368 kts | 68° |
| 2026-05-06 16:38 | 37.36185 | 125.53994 | 7508 ft | 361 kts | 68° |
| 2026-05-06 16:38 | 37.37081 | 125.56899 | 7264 ft | 351 kts | 68° |
| 2026-05-06 16:38 | 37.37957 | 125.59725 | 7006 ft | 343 kts | 68° |
| 2026-05-06 16:39 | 37.38822 | 125.62484 | 6748 ft | 335 kts | 68° |
| 2026-05-06 16:39 | 37.39398 | 125.64313 | 6588 ft | 330 kts | 68° |
| 2026-05-06 16:39 | 37.40503 | 125.67807 | 6254 ft | 322 kts | 68° |
| 2026-05-06 16:39 | 37.41051 | 125.69531 | 6070 ft | 318 kts | 68° |
| 2026-05-06 16:40 | 37.42138 | 125.72951 | 5720 ft | 310 kts | 68° |
| 2026-05-06 16:40 | 37.42926 | 125.75432 | 5610 ft | 300 kts | 69° |
| 2026-05-06 16:40 | 37.43425 | 125.77004 | 5559 ft | 293 kts | 68° |
| 2026-05-06 16:40 | 37.44166 | 125.79336 | 5483 ft | 282 kts | 68° |
| 2026-05-06 16:41 | 37.45106 | 125.82298 | 5368 ft | 269 kts | 69° |
| 2026-05-06 16:41 | 37.45574 | 125.83774 | 5230 ft | 266 kts | 69° |
| 2026-05-06 16:41 | 37.46257 | 125.85929 | 4979 ft | 264 kts | 69° |
| 2026-05-06 16:41 | 37.46933 | 125.88064 | 4728 ft | 262 kts | 69° |
| 2026-05-06 16:42 | 37.47605 | 125.90184 | 4466 ft | 259 kts | 69° |
| 2026-05-06 16:42 | 37.48270 | 125.92285 | 4216 ft | 258 kts | 70° |
| 2026-05-06 16:42 | 37.48930 | 125.94374 | 3960 ft | 256 kts | 70° |
| 2026-05-06 16:42 | 37.49586 | 125.96451 | 3724 ft | 254 kts | 71° |
| 2026-05-06 16:43 | 37.50225 | 125.98476 | 3632 ft | 242 kts | 71° |
| 2026-05-06 16:43 | 37.50826 | 126.00375 | 3683 ft | 224 kts | 71° |
| 2026-05-06 16:43 | 37.51411 | 126.02235 | 3698 ft | 237 kts | 71° |
| 2026-05-06 16:43 | 37.52029 | 126.04207 | 3669 ft | 245 kts | 71° |
| 2026-05-06 16:44 | 37.52661 | 126.06216 | 3639 ft | 247 kts | 71° |
| 2026-05-06 16:44 | 37.53289 | 126.08213 | 3633 ft | 246 kts | 71° |
| 2026-05-06 16:44 | 37.53913 | 126.10197 | 3637 ft | 245 kts | 71° |
| 2026-05-06 16:44 | 37.54541 | 126.12195 | 3599 ft | 247 kts | 71° |
| 2026-05-06 16:45 | 37.55177 | 126.14222 | 3401 ft | 249 kts | 71° |
| 2026-05-06 16:45 | 37.55809 | 126.16238 | 3212 ft | 245 kts | 71° |
| 2026-05-06 16:45 | 37.56430 | 126.18213 | 3180 ft | 240 kts | 72° |
| 2026-05-06 16:45 | 37.57078 | 126.20163 | 3171 ft | 243 kts | 64° |
| 2026-05-06 16:46 | 37.58026 | 126.21965 | 3203 ft | 250 kts | 55° |
| 2026-05-06 16:46 | 37.59070 | 126.23734 | 3195 ft | 251 kts | 54° |
| 2026-05-06 16:46 | 37.60092 | 126.25483 | 3150 ft | 248 kts | 54° |
| 2026-05-06 16:46 | 37.60889 | 126.27346 | 3093 ft | 237 kts | 82° |
| 2026-05-06 16:47 | 37.60672 | 126.29278 | 2982 ft | 217 kts | 127° |
| 2026-05-06 16:47 | 37.59669 | 126.30500 | 2909 ft | 193 kts | 153° |
| 2026-05-06 16:47 | 37.58587 | 126.31458 | 2685 ft | 187 kts | 152° |
| 2026-05-06 16:47 | 37.57537 | 126.32396 | 2476 ft | 183 kts | 153° |
| 2026-05-06 16:48 | 37.56505 | 126.33317 | 2240 ft | 180 kts | 153° |
| 2026-05-06 16:48 | 37.55515 | 126.34205 | 2006 ft | 168 kts | 153° |
| 2026-05-06 16:48 | 37.54608 | 126.35018 | 1804 ft | 152 kts | 154° |
| 2026-05-06 16:48 | 37.53762 | 126.35771 | 1613 ft | 149 kts | 153° |
| 2026-05-06 16:49 | 37.52925 | 126.36515 | 1438 ft | 150 kts | 152° |
| 2026-05-06 16:49 | 37.52097 | 126.37258 | 1201 ft | 140 kts | 151° |
| 2026-05-06 16:49 | 37.51328 | 126.37947 | 1017 ft | 133 kts | 151° |
| 2026-05-06 16:49 | 37.50578 | 126.38613 | 845 ft | 133 kts | 148° |
| 2026-05-06 16:50 | 37.49826 | 126.39287 | 677 ft | 133 kts | 147° |
| 2026-05-06 16:50 | 37.49074 | 126.39957 | 467 ft | 132 kts | 147° |
| 2026-05-06 16:50 | 37.48327 | 126.40626 | 314 ft | 132 kts | 146° |
| 2026-05-06 16:50 | 37.47574 | 126.41303 | 143 ft | 133 kts | 146° |
| 2026-05-06 16:51 | 37.46831 | 126.41968 | 42 ft | 124 kts | 145° |
| 2026-05-06 16:51 | 37.46197 | 126.42522 | 38 ft | 94 kts | 145° |
| 2026-05-06 16:51 | 37.45731 | 126.42940 | 38 ft | 80 kts | 144° |
| 2026-05-06 16:51 | 37.45394 | 126.43241 | 38 ft | 22 kts | 140° |
| 2026-05-06 16:52 | 37.45283 | 126.43374 | 38 ft | 22 kts | 126° |
| 2026-05-06 16:52 | 37.45216 | 126.43548 | 38 ft | 22 kts | 115° |
| 2026-05-06 16:52 | 37.45159 | 126.43695 | 38 ft | 16 kts | 122° |
| 2026-05-06 16:52 | 37.45077 | 126.43787 | 38 ft | 16 kts | 144° |
| 2026-05-06 16:53 | 37.44994 | 126.43877 | 38 ft | 16 kts | 116° |
| 2026-05-06 16:53 | 37.45031 | 126.44005 | 38 ft | 17 kts | 55° |
| 2026-05-06 16:53 | 37.45098 | 126.44125 | 38 ft | 17 kts | 54° |
| 2026-05-06 16:53 | 37.45166 | 126.44246 | 38 ft | 17 kts | 55° |
| 2026-05-06 16:54 | 37.45238 | 126.44376 | 38 ft | 19 kts | 54° |
| 2026-05-06 16:54 | 37.45303 | 126.44505 | 37 ft | 18 kts | 79° |
| 2026-05-06 16:54 | 37.45279 | 126.44572 | 37 ft | 7 kts | 133° |
| 2026-05-06 16:54 | 37.45241 | 126.44625 | 37 ft | 9 kts | 128° |
| 2026-05-06 16:55 | 37.45192 | 126.44679 | 37 ft | 10 kts | 174° |
| 2026-05-06 16:55 | 37.45131 | 126.44646 | 37 ft | 7 kts | 202° |
| 2026-05-06 16:55 | 37.45115 | 126.44638 | 37 ft | 0 kts | 202° |
| 2026-05-06 16:55 | 37.45109 | 126.44635 | 37 ft | 0 kts | 202° |
| 2026-05-06 16:56 | 37.45136 | 126.44649 | 37 ft | 1 kts | 201° |
| 2026-05-06 16:56 | 37.45122 | 126.44642 | 37 ft | 3 kts | 202° |
| 2026-05-06 16:56 | 37.45117 | 126.44639 | 37 ft | 0 kts | 202° |